createdAt,value
2023-01-03T00:01:34.368Z,96.77
2023-01-03T00:04:02.174Z,96.31
2023-01-03T00:06:38.699Z,96.77
2023-01-03T00:09:09.879Z,96.67
2023-01-03T00:11:57.680Z,96.18
2023-01-03T00:14:27.673Z,96.59
2023-01-03T00:16:57.182Z,96.94
2023-01-03T00:19:26.045Z,96.38
2023-01-03T00:21:53.814Z,96.79
2023-01-03T00:24:22.516Z,97.10
2023-01-03T00:26:49.666Z,96.51
2023-01-03T00:29:17.129Z,96.80
2023-01-03T00:31:44.183Z,96.94
2023-01-03T00:34:11.488Z,96.79
2023-01-03T00:36:39.097Z,96.40
2023-01-03T00:39:07.277Z,96.71
2023-01-03T00:41:34.597Z,96.67
2023-01-03T00:44:01.643Z,96.73
2023-01-03T00:46:28.978Z,96.81
2023-01-03T00:48:55.968Z,97.05
2023-01-03T00:51:26.558Z,96.91
2023-01-03T00:53:56.363Z,97.12
2023-01-03T00:56:34.939Z,96.95
2023-01-03T00:59:02.760Z,97.54
2023-01-03T01:01:46.801Z,96.97
2023-01-03T01:04:25.511Z,97.52
2023-01-03T01:07:00.973Z,97.47
2023-01-03T01:09:32.538Z,97.25
2023-01-03T01:11:59.634Z,97.20
2023-01-03T01:14:29.425Z,97.66
2023-01-03T01:17:02.084Z,97.43
2023-01-03T01:19:33.341Z,97.57
2023-01-03T01:22:00.912Z,98.00
2023-01-03T01:24:28.127Z,97.50
2023-01-03T01:26:55.043Z,97.14
2023-01-03T01:29:22.636Z,97.23
2023-01-03T01:31:49.995Z,97.70
2023-01-03T01:34:17.539Z,97.28
2023-01-03T01:36:45.979Z,97.80
2023-01-03T01:39:17.559Z,97.52
2023-01-03T01:42:04.430Z,97.30
2023-01-03T01:44:43.234Z,97.50
2023-01-03T01:47:33.298Z,97.19
2023-01-03T01:50:18.546Z,97.01
2023-01-03T01:53:10.145Z,96.63
2023-01-03T01:55:57.235Z,96.55
2023-01-03T01:58:29.175Z,96.63
2023-01-03T02:00:56.715Z,95.92
2023-01-03T02:03:23.668Z,95.55
2023-01-03T02:05:54.879Z,95.17
2023-01-03T02:08:36.575Z,95.26
2023-01-03T02:11:37.964Z,95.28
2023-01-03T02:14:52.529Z,95.19
2023-01-03T02:18:00.823Z,94.90
2023-01-03T02:20:58.711Z,94.60
2023-01-03T02:24:31.675Z,94.13
2023-01-03T02:27:46.523Z,94.07
2023-01-03T02:30:36.873Z,94.07
2023-01-03T02:33:24.402Z,93.38
2023-01-03T02:36:20.865Z,93.47
2023-01-03T02:38:59.950Z,92.88
2023-01-03T02:41:45.356Z,93.12
2023-01-03T02:44:34.195Z,92.93
2023-01-03T02:47:12.285Z,93.06
2023-01-03T02:49:44.314Z,92.48
2023-01-03T02:52:15.869Z,91.95
2023-01-03T02:54:50.116Z,92.45
2023-01-03T02:57:25.445Z,92.30
2023-01-03T02:59:58.245Z,92.43
2023-01-03T03:02:32.964Z,91.90
2023-01-03T03:05:03.113Z,92.54
2023-01-03T03:07:34.747Z,92.26
2023-01-03T03:10:19.993Z,92.17
2023-01-03T03:13:11.971Z,91.95
2023-01-03T03:15:54.806Z,91.37
2023-01-03T03:18:44.590Z,91.79
2023-01-03T03:21:33.893Z,91.16
2023-01-03T03:24:30.149Z,91.16
2023-01-03T03:27:00.013Z,91.89
2023-01-03T03:29:29.371Z,91.02
2023-01-03T03:31:57.356Z,91.30
2023-01-03T03:34:31.273Z,91.34
2023-01-03T03:37:26.394Z,91.55
2023-01-03T03:40:14.100Z,91.69
2023-01-03T03:43:26.098Z,91.79
2023-01-03T03:46:05.116Z,91.26
2023-01-03T03:49:01.676Z,91.46
2023-01-03T03:51:33.611Z,91.77
2023-01-03T03:54:04.550Z,91.73
2023-01-03T03:56:34.469Z,91.77
2023-01-03T03:59:06.777Z,91.51
2023-01-03T04:01:37.091Z,91.57
2023-01-03T04:04:10.828Z,91.56
2023-01-03T04:06:44.491Z,91.79
2023-01-03T04:09:12.110Z,91.77
2023-01-03T04:11:38.997Z,91.20
2023-01-03T04:14:05.990Z,91.81
2023-01-03T04:16:33.636Z,91.69
2023-01-03T04:19:00.545Z,91.37
2023-01-03T04:21:27.785Z,91.51
2023-01-03T04:23:54.745Z,91.36
2023-01-03T04:26:23.034Z,92.07
2023-01-03T04:28:49.939Z,91.67
2023-01-03T04:31:16.863Z,91.55
2023-01-03T04:33:43.866Z,91.26
2023-01-03T04:36:11.210Z,91.53
2023-01-03T04:38:38.335Z,91.90
2023-01-03T04:41:09.411Z,91.32
2023-01-03T04:43:55.562Z,91.97
2023-01-03T04:46:24.103Z,91.39
2023-01-03T04:48:51.107Z,91.24
2023-01-03T04:51:17.994Z,91.48
2023-01-03T04:53:44.948Z,91.32
2023-01-03T04:56:11.927Z,91.39
2023-01-03T04:58:39.071Z,91.44
2023-01-03T05:01:08.506Z,91.56
2023-01-03T05:03:36.080Z,91.32
2023-01-03T05:06:06.829Z,90.89
2023-01-03T05:08:34.006Z,90.89
2023-01-03T05:11:01.585Z,91.03
2023-01-03T05:13:28.504Z,90.45
2023-01-03T05:15:55.451Z,90.52
2023-01-03T05:18:22.611Z,90.51
2023-01-03T05:21:08.219Z,90.59
2023-01-03T05:23:53.592Z,90.44
2023-01-03T05:26:22.133Z,90.55
2023-01-03T05:28:53.060Z,90.43
2023-01-03T05:31:23.001Z,90.29
2023-01-03T05:33:50.007Z,90.63
2023-01-03T05:36:16.936Z,90.60
2023-01-03T05:38:44.004Z,90.81
2023-01-03T05:41:14.181Z,90.39
2023-01-03T05:43:41.186Z,90.45
2023-01-03T05:46:08.386Z,90.67
2023-01-03T05:48:35.395Z,91.14
2023-01-03T05:51:02.338Z,90.76
2023-01-03T05:53:29.279Z,90.33
2023-01-03T05:55:56.157Z,90.22
2023-01-03T05:58:23.160Z,90.92
2023-01-03T06:00:50.245Z,90.67
2023-01-03T06:03:17.206Z,90.43
2023-01-03T06:05:50.136Z,90.49
2023-01-03T06:08:17.393Z,90.68
2023-01-03T06:10:44.371Z,90.02
2023-01-03T06:13:11.858Z,89.78
2023-01-03T06:15:38.982Z,89.78
2023-01-03T06:18:05.866Z,89.83
2023-01-03T06:20:33.127Z,90.29
2023-01-03T06:23:00.163Z,89.60
2023-01-03T06:25:27.440Z,90.11
2023-01-03T06:27:55.982Z,89.75
2023-01-03T06:30:22.957Z,89.96
2023-01-03T06:32:49.852Z,89.95
2023-01-03T06:35:16.903Z,89.94
2023-01-03T06:37:43.881Z,90.21
2023-01-03T06:40:11.187Z,90.33
2023-01-03T06:42:43.268Z,90.20
2023-01-03T06:45:32.100Z,90.79
2023-01-03T06:48:17.964Z,90.65
2023-01-03T06:51:03.935Z,90.12
2023-01-03T06:53:35.436Z,90.14
2023-01-03T06:56:03.716Z,90.32
2023-01-03T06:58:31.135Z,90.15
2023-01-03T07:01:00.360Z,90.52
2023-01-03T07:03:27.327Z,89.97
2023-01-03T07:05:54.519Z,90.33
2023-01-03T07:08:21.501Z,89.86
2023-01-03T07:10:48.456Z,90.10
2023-01-03T07:13:34.014Z,89.87
2023-01-03T07:16:03.010Z,90.19
2023-01-03T07:18:30.090Z,89.55
2023-01-03T07:20:57.005Z,88.92
2023-01-03T07:23:24.035Z,88.54
2023-01-03T07:25:55.197Z,88.40
2023-01-03T07:28:22.119Z,88.72
2023-01-03T07:30:49.107Z,88.48
2023-01-03T07:33:17.384Z,88.18
2023-01-03T07:35:45.358Z,88.03
2023-01-03T07:38:13.836Z,88.67
2023-01-03T07:40:40.835Z,87.86
2023-01-03T07:43:29.518Z,87.21
2023-01-03T07:45:56.523Z,87.40
2023-01-03T07:48:23.539Z,86.95
2023-01-03T07:50:50.468Z,87.05
2023-01-03T07:53:18.219Z,86.50
2023-01-03T07:55:48.018Z,87.21
2023-01-03T07:58:15.075Z,86.54
2023-01-03T08:00:42.412Z,86.77
2023-01-03T08:03:11.362Z,86.40
2023-01-03T08:05:39.403Z,85.72
2023-01-03T08:08:06.800Z,85.84
2023-01-03T08:10:52.547Z,85.87
2023-01-03T08:13:19.990Z,84.81
2023-01-03T08:15:55.773Z,84.31
2023-01-03T08:18:27.486Z,84.34
2023-01-03T08:20:57.547Z,84.64
2023-01-03T08:23:25.881Z,83.99
2023-01-03T08:25:59.423Z,83.66
2023-01-03T08:28:26.339Z,83.29
2023-01-03T08:30:53.282Z,82.76
2023-01-03T08:33:20.612Z,83.48
2023-01-03T08:36:11.479Z,82.66
2023-01-03T08:38:48.545Z,82.09
2023-01-03T08:41:20.909Z,82.36
2023-01-03T08:43:49.471Z,82.33
2023-01-03T08:46:18.283Z,80.82
2023-01-03T08:48:45.798Z,80.75
2023-01-03T08:51:12.792Z,81.05
2023-01-03T08:53:39.817Z,79.56
2023-01-03T08:56:07.278Z,79.14
2023-01-03T08:58:34.141Z,79.55
2023-01-03T09:01:05.121Z,79.81
2023-01-03T09:03:32.500Z,80.14
2023-01-03T09:06:03.595Z,79.75
2023-01-03T09:08:32.005Z,79.67
2023-01-03T09:10:59.188Z,79.80
2023-01-03T09:13:25.984Z,80.20
2023-01-03T09:16:01.074Z,80.72
2023-01-03T09:18:27.896Z,80.75
2023-01-03T09:20:54.703Z,79.93
2023-01-03T09:23:21.567Z,81.01
2023-01-03T09:25:48.397Z,80.14
2023-01-03T09:28:15.275Z,79.79
2023-01-03T09:30:44.419Z,79.13
2023-01-03T09:33:11.320Z,78.98
2023-01-03T09:35:39.768Z,79.63
2023-01-03T09:38:07.156Z,79.28
2023-01-03T09:40:40.988Z,79.75
2023-01-03T09:43:24.778Z,79.13
2023-01-03T09:45:58.792Z,77.69
2023-01-03T09:48:38.447Z,77.73
2023-01-03T09:51:30.387Z,77.84
2023-01-03T09:54:16.745Z,77.14
2023-01-03T09:57:02.250Z,76.46
2023-01-03T09:59:55.144Z,76.27
2023-01-03T10:02:59.576Z,76.16
2023-01-03T10:05:36.600Z,76.96
2023-01-03T10:08:15.193Z,75.11
2023-01-03T10:11:09.157Z,75.84
2023-01-03T10:13:55.140Z,75.62
2023-01-03T10:16:38.053Z,76.14
2023-01-03T10:19:10.491Z,76.40
2023-01-03T10:21:52.258Z,76.59
2023-01-03T10:24:30.650Z,76.39
2023-01-03T10:27:09.065Z,76.97
2023-01-03T10:29:36.146Z,76.04
2023-01-03T10:32:28.645Z,75.95
2023-01-03T10:35:14.132Z,75.33
2023-01-03T10:37:41.540Z,74.76
2023-01-03T10:40:09.241Z,74.79
2023-01-03T10:42:38.209Z,75.06
2023-01-03T10:45:23.005Z,75.29
2023-01-03T10:48:00.971Z,76.13
2023-01-03T10:50:29.312Z,76.04
2023-01-03T10:53:05.693Z,76.10
2023-01-03T10:55:35.653Z,76.69
2023-01-03T10:58:12.908Z,75.58
2023-01-03T11:00:39.867Z,74.15
2023-01-03T11:03:10.371Z,74.53
2023-01-03T11:05:39.253Z,73.82
2023-01-03T11:08:15.721Z,73.26
2023-01-03T11:10:59.797Z,74.15
2023-01-03T11:13:32.712Z,74.44
2023-01-03T11:16:02.466Z,73.34
2023-01-03T11:18:31.227Z,73.56
2023-01-03T11:21:04.751Z,74.13
2023-01-03T11:23:49.677Z,73.91
2023-01-03T11:27:02.845Z,73.34
2023-01-03T11:29:48.336Z,73.47
2023-01-03T11:32:27.269Z,73.01
2023-01-03T11:35:26.361Z,73.17
2023-01-03T11:38:13.997Z,73.05
2023-01-03T11:41:05.739Z,74.66
2023-01-03T11:43:44.490Z,73.35
2023-01-03T11:46:14.085Z,73.06
2023-01-03T11:48:59.607Z,73.26
2023-01-03T11:51:54.197Z,72.94
2023-01-03T11:55:08.993Z,73.11
2023-01-03T11:57:45.316Z,72.77
2023-01-03T12:00:50.885Z,72.96
2023-01-03T12:03:49.958Z,73.90
2023-01-03T12:06:32.209Z,73.40
2023-01-03T12:09:01.587Z,73.34
2023-01-03T12:11:47.294Z,73.19
2023-01-03T12:14:26.532Z,72.78
2023-01-03T12:17:22.337Z,72.72
2023-01-03T12:19:57.466Z,72.44
2023-01-03T12:22:44.870Z,72.35
2023-01-03T12:25:25.572Z,72.35
2023-01-03T12:28:10.666Z,71.81
2023-01-03T12:30:50.411Z,72.23
2023-01-03T12:33:19.947Z,71.54
2023-01-03T12:36:01.894Z,71.09
2023-01-03T12:38:41.572Z,70.41
2023-01-03T12:41:28.508Z,70.83
2023-01-03T12:44:07.411Z,71.29
2023-01-03T12:46:42.002Z,70.29
2023-01-03T12:49:22.180Z,71.00
2023-01-03T12:51:49.006Z,70.30
2023-01-03T12:54:42.628Z,70.33
2023-01-03T12:57:21.477Z,71.00
2023-01-03T13:00:20.989Z,71.05
2023-01-03T13:03:26.152Z,71.12
2023-01-03T13:06:05.538Z,70.38
2023-01-03T13:08:46.483Z,71.72
2023-01-03T13:11:42.689Z,71.65
2023-01-03T13:14:22.793Z,71.40
2023-01-03T13:16:51.473Z,71.77
2023-01-03T13:19:24.325Z,71.88
2023-01-03T13:21:54.015Z,71.31
2023-01-03T13:24:45.290Z,71.40
2023-01-03T13:27:18.269Z,71.67
2023-01-03T13:29:50.771Z,70.45
2023-01-03T13:32:26.401Z,71.11
2023-01-03T13:34:59.129Z,70.64
2023-01-03T13:37:27.343Z,70.10
2023-01-03T13:40:23.412Z,70.27
2023-01-03T13:43:10.921Z,70.65
2023-01-03T13:45:37.656Z,70.12
2023-01-03T13:48:32.693Z,69.86
2023-01-03T13:51:14.716Z,70.52
2023-01-03T13:54:21.963Z,70.73
2023-01-03T13:56:48.740Z,70.29
2023-01-03T13:59:15.613Z,70.61
2023-01-03T14:01:57.858Z,70.22
2023-01-03T14:04:33.895Z,70.88
2023-01-03T14:07:21.800Z,70.41
2023-01-03T14:10:15.191Z,70.69
2023-01-03T14:12:51.121Z,71.23
2023-01-03T14:15:25.853Z,70.95
2023-01-03T14:18:00.016Z,71.24
2023-01-03T14:20:31.259Z,71.53
2023-01-03T14:23:23.927Z,71.05
2023-01-03T14:25:52.895Z,71.48
2023-01-03T14:28:23.418Z,71.37
2023-01-03T14:30:56.324Z,69.96
2023-01-03T14:33:25.917Z,70.17
2023-01-03T14:36:05.559Z,70.97
2023-01-03T14:38:34.403Z,71.33
2023-01-03T14:41:01.762Z,71.02
2023-01-03T14:43:33.108Z,71.29
2023-01-03T14:46:08.572Z,71.20
2023-01-03T14:48:35.392Z,72.18
2023-01-03T14:51:04.752Z,72.35
2023-01-03T14:53:33.577Z,73.06
2023-01-03T14:56:01.497Z,73.89
2023-01-03T14:58:42.719Z,73.70
2023-01-03T15:01:11.907Z,74.13
2023-01-03T15:03:43.199Z,74.26
2023-01-03T15:06:23.395Z,74.86
2023-01-03T15:08:56.327Z,74.34
2023-01-03T15:11:28.476Z,74.31
2023-01-03T15:14:05.194Z,75.12
2023-01-03T15:16:37.832Z,75.31
2023-01-03T15:19:16.071Z,74.90
2023-01-03T15:21:43.420Z,75.07
2023-01-03T15:24:14.804Z,75.58
2023-01-03T15:26:48.602Z,75.55
2023-01-03T15:29:25.622Z,76.03
2023-01-03T15:31:55.739Z,75.57
2023-01-03T15:34:39.185Z,76.28
2023-01-03T15:37:17.722Z,76.17
2023-01-03T15:39:56.135Z,75.90
2023-01-03T15:42:58.025Z,76.79
2023-01-03T15:45:29.284Z,76.09
2023-01-03T15:48:01.489Z,76.57
2023-01-03T15:50:44.088Z,76.59
2023-01-03T15:53:21.875Z,76.85
2023-01-03T15:55:51.639Z,77.06
2023-01-03T15:58:18.717Z,77.65
2023-01-03T16:00:45.651Z,77.39
2023-01-03T16:03:17.986Z,77.41
2023-01-03T16:05:45.555Z,78.08
2023-01-03T16:08:25.597Z,78.00
2023-01-03T16:10:53.408Z,78.64
2023-01-03T16:13:22.150Z,78.09
2023-01-03T16:15:50.927Z,78.09
2023-01-03T16:18:24.365Z,78.71
2023-01-03T16:20:51.303Z,78.61
2023-01-03T16:23:30.435Z,78.49
2023-01-03T16:25:57.915Z,78.99
2023-01-03T16:28:25.915Z,79.18
2023-01-03T16:31:16.461Z,79.32
2023-01-03T16:33:46.247Z,79.96
2023-01-03T16:36:39.608Z,80.34
2023-01-03T16:39:21.538Z,80.40
2023-01-03T16:42:07.935Z,81.60
2023-01-03T16:44:37.027Z,81.81
2023-01-03T16:47:10.220Z,81.85
2023-01-03T16:49:37.595Z,82.55
2023-01-03T16:52:04.743Z,82.85
2023-01-03T16:54:31.878Z,82.55
2023-01-03T16:56:58.796Z,82.84
2023-01-03T16:59:25.839Z,83.03
2023-01-03T17:01:52.968Z,83.01
2023-01-03T17:04:19.978Z,82.71
2023-01-03T17:06:46.957Z,83.04
2023-01-03T17:09:30.432Z,83.42
2023-01-03T17:11:57.539Z,83.29
2023-01-03T17:14:24.733Z,84.21
2023-01-03T17:16:51.703Z,84.50
2023-01-03T17:22:15.753Z,85.26
2023-01-03T17:24:43.747Z,85.11
2023-01-03T17:27:27.828Z,85.40
2023-01-03T17:30:02.698Z,85.57
2023-01-03T17:32:30.316Z,85.56
2023-01-03T17:34:59.346Z,84.80
2023-01-03T17:37:26.636Z,85.70
2023-01-03T17:39:56.893Z,85.45
2023-01-03T17:42:25.912Z,85.45
2023-01-03T17:45:12.045Z,85.54
2023-01-03T17:48:02.440Z,85.88
2023-01-03T17:50:31.081Z,86.13
2023-01-03T17:52:59.884Z,86.06
2023-01-03T17:55:29.321Z,85.73
2023-01-03T17:57:57.568Z,85.71
2023-01-03T18:00:26.821Z,85.83
2023-01-03T18:02:55.763Z,85.31
2023-01-03T18:05:28.986Z,84.88
2023-01-03T18:07:58.802Z,85.21
2023-01-03T18:10:53.871Z,85.64
2023-01-03T18:13:28.309Z,85.06
2023-01-03T18:15:56.012Z,85.03
2023-01-03T18:18:25.133Z,85.04
2023-01-03T18:20:52.951Z,84.92
2023-01-03T18:23:32.218Z,84.29
2023-01-03T18:26:03.239Z,84.15
2023-01-03T18:28:30.396Z,84.10
2023-01-03T18:30:58.097Z,84.28
2023-01-03T18:33:25.855Z,84.56
2023-01-03T18:35:53.459Z,84.51
2023-01-03T18:38:27.415Z,84.62
2023-01-03T18:41:00.700Z,85.02
2023-01-03T18:43:33.432Z,84.81
2023-01-03T18:46:00.651Z,85.67
2023-01-03T18:48:28.055Z,85.58
2023-01-03T18:50:58.922Z,85.99
2023-01-03T18:53:31.705Z,85.19
2023-01-03T18:55:59.440Z,84.70
2023-01-03T18:58:34.253Z,84.10
2023-01-03T19:01:01.679Z,83.20
2023-01-03T19:03:32.103Z,83.30
2023-01-03T19:06:01.284Z,82.60
2023-01-03T19:08:32.663Z,82.22
2023-01-03T19:11:08.695Z,82.28
2023-01-03T19:13:56.311Z,82.16
2023-01-03T19:16:28.526Z,81.70
2023-01-03T19:18:57.143Z,81.57
2023-01-03T19:21:26.820Z,81.16
2023-01-03T19:24:20.897Z,80.54
2023-01-03T19:26:53.138Z,80.69
2023-01-03T19:29:24.062Z,80.42
2023-01-03T19:31:54.488Z,80.26
2023-01-03T19:34:24.280Z,79.85
2023-01-03T19:36:52.475Z,79.70
2023-01-03T19:39:25.198Z,79.53
2023-01-03T19:42:17.146Z,79.48
2023-01-03T19:44:44.494Z,79.50
2023-01-03T19:47:18.695Z,79.69
2023-01-03T19:49:48.402Z,79.12
2023-01-03T19:52:16.945Z,79.34
2023-01-03T19:54:44.737Z,79.67
2023-01-03T19:57:33.829Z,79.78
2023-01-03T20:00:03.855Z,79.66
2023-01-03T20:02:35.996Z,79.46
2023-01-03T20:05:03.728Z,79.55
2023-01-03T20:07:30.793Z,79.31
2023-01-03T20:09:57.744Z,79.21
2023-01-03T20:12:26.726Z,79.23
2023-01-03T20:15:00.012Z,79.34
2023-01-03T20:17:31.400Z,79.48
2023-01-03T20:19:58.284Z,79.41
2023-01-03T20:23:02.420Z,79.54
2023-01-03T20:25:30.368Z,79.55
2023-01-03T20:27:58.804Z,79.78
2023-01-03T20:30:29.133Z,79.51
2023-01-03T20:32:56.835Z,79.89
2023-01-03T20:38:13.207Z,80.30
2023-01-03T20:40:40.249Z,80.46
2023-01-03T20:43:14.075Z,80.65
2023-01-03T20:45:41.190Z,80.95
2023-01-03T20:48:18.046Z,80.86
2023-01-03T20:50:50.342Z,81.02
2023-01-03T20:53:20.058Z,80.82
2023-01-03T20:55:48.230Z,80.71
2023-01-03T20:58:17.479Z,80.69
2023-01-03T21:00:45.902Z,81.46
2023-01-03T21:03:13.377Z,82.17
2023-01-03T21:05:40.522Z,82.12
2023-01-03T21:08:30.855Z,82.47
2023-01-03T21:10:57.852Z,83.95
2023-01-03T21:13:24.790Z,83.92
2023-01-03T21:15:51.804Z,83.87
2023-01-03T21:18:19.310Z,83.88
2023-01-03T21:20:46.621Z,84.42
2023-01-03T21:23:22.299Z,84.21
2023-01-03T21:25:50.104Z,83.42
2023-01-03T21:28:17.029Z,82.65
2023-01-03T21:30:44.019Z,83.29
2023-01-03T21:33:18.133Z,83.18
2023-01-03T21:35:46.444Z,83.50
2023-01-03T21:38:13.503Z,84.28
2023-01-03T21:40:40.706Z,85.88
2023-01-03T21:43:08.009Z,87.25
2023-01-03T21:45:48.422Z,88.33
2023-01-03T21:48:18.021Z,88.98
2023-01-03T21:50:47.130Z,88.58
2023-01-03T21:53:16.265Z,89.29
2023-01-03T21:55:43.415Z,91.27
2023-01-03T21:58:15.030Z,91.45
2023-01-03T22:00:42.670Z,92.06
2023-01-03T22:03:35.266Z,92.74
2023-01-03T22:06:13.990Z,92.62
2023-01-03T22:08:41.218Z,92.62
2023-01-03T22:11:08.430Z,93.24
2023-01-03T22:13:36.270Z,94.83
2023-01-03T22:16:06.232Z,94.99
2023-01-03T22:18:33.975Z,95.18
2023-01-03T22:21:07.892Z,94.85
2023-01-03T22:23:35.143Z,93.58
2023-01-03T22:26:03.620Z,93.92
2023-01-03T22:28:38.416Z,94.01
2023-01-03T22:31:14.364Z,95.15
2023-01-03T22:33:41.434Z,97.72
2023-01-03T22:36:08.837Z,97.25
2023-01-03T22:38:36.785Z,97.60
2023-01-03T22:41:10.623Z,97.13
2023-01-03T22:43:38.146Z,97.13
2023-01-03T22:46:13.403Z,97.27
2023-01-03T22:48:40.923Z,97.21
2023-01-03T22:51:12.030Z,97.24
2023-01-03T22:53:41.376Z,96.25
2023-01-03T22:56:15.381Z,96.15
2023-01-03T22:58:43.376Z,95.31
2023-01-03T23:01:15.460Z,96.37
2023-01-03T23:03:43.617Z,96.05
2023-01-03T23:06:13.266Z,94.92
2023-01-03T23:08:41.351Z,95.17
2023-01-03T23:11:34.001Z,94.69
2023-01-03T23:14:03.853Z,95.09
2023-01-03T23:16:32.520Z,95.65
2023-01-03T23:19:02.200Z,95.31
2023-01-03T23:21:29.667Z,95.05
2023-01-03T23:23:56.704Z,93.86
2023-01-03T23:26:24.844Z,94.14
2023-01-03T23:28:59.651Z,93.26
2023-01-03T23:31:27.863Z,93.01
2023-01-03T23:33:56.294Z,92.36
2023-01-03T23:36:23.949Z,93.81
2023-01-03T23:38:53.102Z,93.89
2023-01-03T23:41:20.195Z,94.27
2023-01-03T23:43:47.446Z,94.19
2023-01-03T23:46:16.755Z,93.99
2023-01-03T23:48:43.720Z,94.30
2023-01-03T23:51:12.501Z,93.37
2023-01-03T23:53:42.015Z,94.20
2023-01-03T23:56:15.947Z,94.34
2023-01-03T23:58:43.190Z,94.18
